Flight Track Log - Related Links

Times and Time Zones

All times are in EDT time to prevent confusion due to time zone crossing. See the SWA2236 flight status page for this flight to view local times or setup timezone preferences in your user account.

Time Position Orientation Groundspeed Altitude Reporting Facility
EDT Latitude Longitude Course Direction KTS MPH feet Rate Location/Type
Wed 07:13:54 AM 32.8333 -96.8333 112° Southeast 165 190 1,300  Level Dallas / Fort Worth TRACON
Wed 07:14:43 AM 32.8167 -96.7833 112° Southeast 221 254 2,900 2,272 Climbing Dallas / Fort Worth TRACON
Wed 07:15:37 AM 32.7667 -96.7833 180° South 218 251 5,200 2,474 Climbing Dallas / Fort Worth TRACON
Wed 07:16:37 AM 32.7500 -96.8667 257° West 271 312 7,600 2,736 Climbing Dallas / Fort Worth TRACON
Wed 07:17:42 AM 32.7500 -96.9667 270° West 302 348 10,900 2,694 Climbing Dallas / Fort Worth TRACON
Wed 07:19:53 AM 32.7894 -97.1983 282° West 341 392 16,400 2,419 Climbing Fort Worth Center
Wed 07:20:53 AM 32.8042 -97.3097 279° West 370 426 18,600 2,350 Climbing Fort Worth Center
Wed 07:21:53 AM 32.8250 -97.4506 280° West 394 453 21,100 2,250 Climbing Fort Worth Center
Wed 07:22:53 AM 32.8417 -97.5767 279° West 405 466 23,100 2,100 Climbing Fort Worth Center
Wed 07:23:53 AM 32.8642 -97.7153 281° West 421 484 25,300 2,000 Climbing Fort Worth Center
Wed 07:24:53 AM 32.8658 -97.8561 271° West 432 497 27,100 1,750 Climbing Fort Worth Center
Wed 07:25:53 AM 32.8633 -98.0044 269° West 438 504 28,800 1,550 Climbing Fort Worth Center
Wed 07:26:53 AM 32.8939 -98.1508 284° West 448 516 30,200 1,500 Climbing Fort Worth Center
Wed 07:27:53 AM 32.9472 -98.2872 295° West 448 516 31,800 1,700 Climbing Fort Worth Center
Wed 07:28:53 AM 32.9983 -98.4289 293° West 458 527 33,600 1,750 Climbing Fort Worth Center
Wed 07:29:53 AM 33.0514 -98.5708 294° West 442 509 35,300 1,600 Climbing Fort Worth Center
Wed 07:30:53 AM 33.1022 -98.7103 294° West 442 509 36,800 1,350 Climbing Fort Worth Center
Wed 07:31:53 AM 33.1528 -98.8475 294° West 447 514 38,000 600 Climbing Fort Worth Center
Wed 07:32:53 AM 33.2014 -98.9850 293° West 447 514 38,000  Level Fort Worth Center
Wed 07:33:53 AM 33.2497 -99.1225 293° West 447 514 38,000  Level Fort Worth Center
Wed 07:34:53 AM 33.2997 -99.2600 294° West 447 514 38,000  Level Fort Worth Center
Wed 07:35:53 AM 33.3500 -99.3956 294° West 447 514 38,000  Level Fort Worth Center
Wed 07:36:53 AM 33.3978 -99.5333 293° West 447 514 38,000  Level Fort Worth Center
Wed 07:37:53 AM 33.4456 -99.6714 293° West 452 520 38,000  Level Fort Worth Center
Wed 07:38:53 AM 33.4950 -99.8122 293° West 457 526 38,000  Level Fort Worth Center
Wed 07:39:53 AM 33.5403 -99.9506 291° West 457 526 38,000  Level Fort Worth Center
Wed 07:40:53 AM 33.5875 -100.0889 292° West 452 520 38,000  Level Fort Worth Center
Wed 07:41:53 AM 33.6367 -100.2253 293° West 452 520 38,000  Level Fort Worth Center
Wed 07:42:53 AM 33.6836 -100.3664 292° West 452 520 38,000  Level Fort Worth Center
Wed 07:43:53 AM 33.7303 -100.5028 292° West 452 520 38,000  Level Fort Worth Center
Wed 07:44:53 AM 33.7769 -100.6369 293° West 452 520 38,000  Level Fort Worth Center
Wed 07:45:53 AM 33.8233 -100.7786 292° West 452 520 38,000  Level Fort Worth Center
Wed 07:46:53 AM 33.8697 -100.9156 292° West 452 520 38,000  Level Fort Worth Center
Wed 07:47:53 AM 33.9139 -101.0525 291° West 452 520 38,000  Level Fort Worth Center
Wed 07:48:53 AM 33.9597 -101.1897 292° West 447 514 38,000  Level Fort Worth Center
Wed 07:49:53 AM 34.0056 -101.3269 292° West 447 514 38,000  Level Fort Worth Center
Wed 07:50:53 AM 34.0533 -101.4644 293° West 442 509 38,000  Level Fort Worth Center
Wed 07:51:53 AM 34.0953 -101.5917 292° West 442 509 38,000  Level Fort Worth Center
Wed 07:52:53 AM 34.1422 -101.7394 291° West 437 503 38,000  Level Fort Worth Center
Wed 07:53:53 AM 34.1875 -101.8747 292° West 442 509 38,000  Level Fort Worth Center
Wed 07:54:31 AM 34.2147 -101.9631 290° West 446 513 38,000  Level Albuquerque Center
Wed 07:55:31 AM 34.2592 -102.1028 291° West 446 513 38,000  Level Albuquerque Center
Wed 07:56:32 AM 34.3044 -102.2397 292° West 441 507 38,000  Level Albuquerque Center
Wed 07:57:32 AM 34.3492 -102.3808 291° West 444 511 38,000  Level Albuquerque Center
Wed 07:58:32 AM 34.3942 -102.5200 291° West 445 512 38,000  Level Albuquerque Center
Wed 07:59:33 AM 34.4394 -102.6611 291° West 446 513 38,000  Level Albuquerque Center
Wed 08:00:33 AM 34.4833 -102.8017 291° West 445 512 38,000  Level Albuquerque Center
Wed 08:01:33 AM 34.5064 -102.9403 281° West 453 521 38,000  Level Albuquerque Center
Wed 08:02:34 AM 34.5256 -103.0878 279° West 446 513 38,000  Level Albuquerque Center
Wed 08:03:34 AM 34.5431 -103.2369 278° West 443 510 38,000  Level Albuquerque Center
Wed 08:04:35 AM 34.5611 -103.3864 278° West 442 509 38,000 -397 Level Albuquerque Center
Wed 08:05:35 AM 34.5786 -103.5350 278° West 440 506 37,200 -893 Descending Albuquerque Center
Wed 08:06:36 AM 34.6061 -103.6786 283° West 435 501 36,200 -595 Descending Albuquerque Center
Wed 08:07:36 AM 34.6431 -103.8228 287° West 440 506 36,000 -100 Descending Albuquerque Center
Wed 08:08:36 AM 34.6783 -103.9664 287° West 440 506 36,000  Level Albuquerque Center
Wed 08:09:37 AM 34.7125 -104.1097 286° West 437 503 36,000 -99 Level Albuquerque Center
Wed 08:10:37 AM 34.7469 -104.2528 286° West 435 501 35,800 -595 Descending Albuquerque Center
Wed 08:11:38 AM 34.7814 -104.3969 286° West 436 502 34,800 -992 Descending Albuquerque Center
Wed 08:12:38 AM 34.8161 -104.5411 286° West 438 504 33,800 -992 Descending Albuquerque Center
Wed 08:13:39 AM 34.8422 -104.6900 282° West 442 509 32,800 -992 Descending Albuquerque Center
Wed 08:14:39 AM 34.8561 -104.8397 276° West 440 506 31,800 -1,091 Descending Albuquerque Center
Wed 08:15:40 AM 34.8697 -104.9900 276° West 441 507 30,600 -1,587 Descending Albuquerque Center
Wed 08:16:40 AM 34.8831 -105.1325 277° West 427 491 28,600 -1,983 Descending Albuquerque Center
Wed 08:17:41 AM 34.8958 -105.2711 276° West 413 475 26,600 -1,934 Descending Albuquerque Center
Wed 08:18:41 AM 34.9078 -105.4044 276° West 399 459 24,700 -1,736 Descending Albuquerque Center
Wed 08:19:42 AM 34.9172 -105.5125 276° West 388 447 23,100 -1,672 Descending Albuquerque Center
Wed 08:20:43 AM 34.9275 -105.6394 276° West 378 435 21,300 -1,835 Descending Albuquerque Center
Wed 08:21:43 AM 34.9367 -105.7633 275° West 368 423 19,400 -1,736 Descending Albuquerque Center
Wed 08:22:44 AM 34.9475 -105.8903 276° West 366 421 17,800 -1,438 Descending Albuquerque Center
Wed 08:23:44 AM 34.9553 -106.0108 275° West 361 415 16,500 -1,438 Descending Albuquerque Center
Wed 08:24:45 AM 34.9578 -106.1222 272° West 338 389 14,900 -1,525 Descending Albuquerque Center
Wed 08:25:46 AM 34.9586 -106.2322 271° West 327 376 13,400 -1,488 Descending Albuquerque Center
Wed 08:26:46 AM 34.9597 -106.3394 271° West 319 367 11,900 -1,388 Descending Albuquerque Center
Wed 08:27:47 AM 34.9581 -106.4456 269° West 316 364 10,600 -885 Descending Albuquerque Center
Wed 08:28:48 AM 34.9542 -106.5436 267° West 305 351 10,100 -744 Descending Albuquerque Center
Wed 08:29:48 AM 34.9089 -106.6053 228° Southwest 268 308 9,100 -893 Descending Albuquerque Center
Wed 08:30:49 AM 34.9156 -106.6689 277° West 238 274 8,300 -934 Descending Albuquerque Center
Wed 08:31:50 AM 34.9586 -106.7072 324° Northwest 221 254 7,200 -1,140 Descending Albuquerque Center
Wed 08:32:50 AM 34.9997 -106.6561 46° Northeast 189 217 6,000 -942 Descending Albuquerque Center
Wed 08:33:51 AM 35.0236 -106.6275 44° Northeast 171 197 5,300 -689 Descending Albuquerque Center
Wed 08:35:00 AM 35.0333 -106.6000 90° East  Level FlightAware Approximate

Login

Don't have an account? Register now (free) for customized features, flight alerts, and more!